Flight Track Log - Related Links

Times and Time Zones

All times are in EDT time to prevent confusion due to time zone crossing. See the FDX1570 flight status page for this flight to view local times or setup timezone preferences in your user account.

Time Position Orientation Groundspeed Altitude Reporting Facility
EDT Latitude Longitude Course Direction KTS MPH feet Rate Location/Type
Tue 04:33:45 AM 35.0333 -89.9667 73° East 159 183 1,100  Level KMEM
Tue 04:34:24 AM 35.0000 -89.9667 180° South 164 189 2,500 1,938 Climbing KMEM
Tue 04:35:21 AM 34.9500 -89.9167 141° Southeast 291 335 4,200 2,625 Climbing KMEM
Tue 04:36:16 AM 34.9833 -89.8500 59° Northeast 286 329 7,400 3,411 Climbing KMEM
Tue 04:36:56 AM 35.0103 -89.7892 62° Northeast 293 337 9,600 2,340 Climbing Memphis Center
Tue 04:37:56 AM 35.0431 -89.7028 65° Northeast 311 358 11,300 1,600 Climbing Memphis Center
Tue 04:38:56 AM 35.0800 -89.5908 68° East 337 388 12,800 1,900 Climbing Memphis Center
Tue 04:39:00 AM 35.2246 -89.1848 73° East  Level FlightAware Approximate
Tue 04:39:56 AM 35.1231 -89.4686 67° East 371 427 15,100  Level Memphis Center
Tue 04:40:56 AM 35.1681 -89.3411 67° East 396 456 17,200 1,950 Climbing Memphis Center
Tue 04:41:56 AM 35.2189 -89.1956 67° East 406 467 19,000 1,850 Climbing Memphis Center
Tue 04:42:56 AM 35.2761 -89.0700 61° Northeast 420 483 20,900 1,750 Climbing Memphis Center
Tue 04:43:56 AM 35.3456 -88.9417 56° Northeast 433 498 22,500 1,600 Climbing Memphis Center
Tue 04:44:56 AM 35.4192 -88.8156 54° Northeast 445 512 24,100 1,550 Climbing Memphis Center
Tue 04:45:56 AM 35.4925 -88.6944 53° Northeast 445 512 25,600 1,350 Climbing Memphis Center
Tue 04:46:56 AM 35.5722 -88.5653 53° Northeast 457 526 26,800 1,150 Climbing Memphis Center
Tue 04:47:56 AM 35.6514 -88.4331 54° Northeast 468 539 27,900 1,300 Climbing Memphis Center
Tue 04:48:56 AM 35.7308 -88.3036 53° Northeast 474 545 29,400 1,800 Climbing Memphis Center
Tue 04:49:56 AM 35.8097 -88.1708 54° Northeast 474 545 31,500 1,900 Climbing Memphis Center
Tue 04:50:56 AM 35.8828 -88.0511 53° Northeast 458 527 33,200 1,230 Climbing Memphis Center
Tue 04:56:02 AM 36.2400 -87.4450 53° Northeast 408 470 39,000 1,006 Climbing FlightAware ADS-B
Tue 04:56:42 AM 36.2780 -87.3810 54° Northeast 408 470 39,000  Level FlightAware ADS-B
Tue 04:57:42 AM 36.3540 -87.2500 54° Northeast 417 480 39,000  Level FlightAware ADS-B
Tue 04:58:37 AM 36.4200 -87.1370 54° Northeast 421 484 39,000  Level FlightAware ADS-B
Tue 04:59:17 AM 36.4680 -87.0520 55° Northeast 422 486 39,000  Level FlightAware ADS-B
Tue 04:59:57 AM 36.5080 -86.9850 53° Northeast 422 486 39,000  Level FlightAware ADS-B
Tue 05:00:47 AM 36.5560 -86.9010 55° Northeast 422 486 39,000  Level FlightAware ADS-B
Tue 05:01:27 AM 36.5950 -86.8340 54° Northeast 422 486 39,000  Level FlightAware ADS-B
Tue 05:01:54 AM 36.6476 -86.7403 55° Northeast 423 487 39,000  Level FlightAware ADS-B
Tue 05:02:24 AM 36.6820 -86.6806 54° Northeast 424 488 39,000  Level FlightAware ADS-B
Tue 05:02:55 AM 36.7167 -86.6210 54° Northeast 424 488 39,000  Level FlightAware ADS-B
Tue 05:03:27 AM 36.7531 -86.5573 54° Northeast 424 488 39,000  Level FlightAware ADS-B
Tue 05:03:57 AM 36.7877 -86.4954 55° Northeast 424 488 39,000  Level FlightAware ADS-B
Tue 05:04:28 AM 36.8231 -86.4336 54° Northeast 424 488 39,000  Level FlightAware ADS-B
Tue 05:05:03 AM 36.8625 -86.3637 55° Northeast 425 489 39,000  Level FlightAware ADS-B
Tue 05:05:57 AM 36.9200 -86.2620 55° Northeast 424 488 39,000  Level FlightAware ADS-B
Tue 05:06:37 AM 36.9630 -86.1890 54° Northeast 424 488 39,000  Level FlightAware ADS-B
Tue 05:07:32 AM 37.0280 -86.0710 55° Northeast 425 489 39,000  Level FlightAware ADS-B
Tue 05:08:03 AM 37.0659 -86.0026 55° Northeast 425 489 39,000  Level FlightAware ADS-B
Tue 05:08:40 AM 37.1081 -85.9278 55° Northeast 426 490 39,000  Level FlightAware ADS-B
Tue 05:09:13 AM 37.1450 -85.8611 55° Northeast 427 491 39,000  Level FlightAware ADS-B
Tue 05:09:43 AM 37.1790 -85.8004 55° Northeast 427 491 39,000  Level FlightAware ADS-B
Tue 05:10:14 AM 37.2139 -85.7375 55° Northeast 427 491 39,000  Level FlightAware ADS-B
Tue 05:10:45 AM 37.2495 -85.6746 55° Northeast 426 490 39,000  Level FlightAware ADS-B
Tue 05:11:15 AM 37.2834 -85.6136 55° Northeast 427 491 39,000  Level FlightAware ADS-B
Tue 05:11:46 AM 37.3176 -85.5507 56° Northeast 427 491 39,000  Level FlightAware ADS-B
Tue 05:12:16 AM 37.3518 -85.4894 55° Northeast 428 493 39,000  Level FlightAware ADS-B
Tue 05:12:48 AM 37.3877 -85.4241 55° Northeast 428 493 39,000  Level FlightAware ADS-B
Tue 05:13:18 AM 37.4217 -85.3627 55° Northeast 429 494 39,000  Level FlightAware ADS-B
Tue 05:13:48 AM 37.4556 -85.3009 55° Northeast 429 494 39,000  Level FlightAware ADS-B
Tue 05:14:18 AM 37.4895 -85.2393 55° Northeast 429 494 39,000  Level FlightAware ADS-B
Tue 05:14:49 AM 37.5239 -85.1757 56° Northeast 429 494 39,000  Level FlightAware ADS-B
Tue 05:15:19 AM 37.5578 -85.1139 55° Northeast 429 494 39,000  Level FlightAware ADS-B
Tue 05:15:49 AM 37.5917 -85.0521 55° Northeast 429 494 39,000  Level FlightAware ADS-B
Tue 05:16:21 AM 37.6269 -84.9882 55° Northeast 429 494 39,000  Level FlightAware ADS-B
Tue 05:16:54 AM 37.6649 -84.9182 56° Northeast 429 494 39,000  Level FlightAware ADS-B
Tue 05:17:25 AM 37.6997 -84.8540 56° Northeast 428 493 39,000  Level FlightAware ADS-B
Tue 05:18:02 AM 37.7406 -84.7776 56° Northeast 428 493 39,000  Level FlightAware ADS-B
Tue 05:18:57 AM 37.8000 -84.6680 56° Northeast 429 494 39,000  Level FlightAware ADS-B
Tue 05:19:18 AM 37.8249 -84.6224 55° Northeast 429 494 39,000  Level FlightAware ADS-B
Tue 05:20:22 AM 37.8950 -84.4920 56° Northeast 429 494 39,000  Level FlightAware ADS-B
Tue 05:21:02 AM 37.9400 -84.4060 56° Northeast 429 494 39,000  Level FlightAware ADS-B
Tue 05:21:47 AM 37.9890 -84.3150 56° Northeast 430 495 39,000  Level FlightAware ADS-B
Tue 05:22:27 AM 38.0340 -84.2310 56° Northeast 430 495 39,000  Level FlightAware ADS-B
Tue 05:23:07 AM 38.0770 -84.1490 56° Northeast 431 496 39,000  Level FlightAware ADS-B
Tue 05:23:47 AM 38.1190 -84.0720 55° Northeast 431 496 39,000  Level FlightAware ADS-B
Tue 05:24:27 AM 38.1570 -84.0010 56° Northeast 431 496 39,000  Level FlightAware ADS-B
Tue 05:25:07 AM 38.2100 -83.8980 57° Northeast 428 493 39,000  Level FlightAware ADS-B
Tue 05:25:52 AM 38.2530 -83.8160 56° Northeast 428 493 39,000  Level FlightAware ADS-B
Tue 05:26:32 AM 38.2910 -83.7440 56° Northeast 428 493 39,000  Level FlightAware ADS-B
Tue 05:27:17 AM 38.3520 -83.6260 57° Northeast 425 489 39,000  Level FlightAware ADS-B
Tue 05:28:02 AM 38.3980 -83.5390 56° Northeast 425 489 39,000  Level FlightAware ADS-B
Tue 05:28:42 AM 38.4360 -83.4690 55° Northeast 425 489 39,000  Level FlightAware ADS-B
Tue 05:29:22 AM 38.4730 -83.3980 56° Northeast 425 489 39,000  Level FlightAware ADS-B
Tue 05:30:02 AM 38.5110 -83.3270 56° Northeast 425 489 39,000  Level FlightAware ADS-B
Tue 05:30:52 AM 38.5570 -83.2380 57° Northeast 425 489 39,000  Level FlightAware ADS-B
Tue 05:31:32 AM 38.5950 -83.1670 56° Northeast 425 489 39,000  Level FlightAware ADS-B
Tue 05:32:12 AM 38.6720 -83.0070 58° Northeast 426 490 39,000  Level FlightAware ADS-B
Tue 05:32:57 AM 38.7200 -82.9120 57° Northeast 426 490 39,000  Level FlightAware ADS-B
Tue 05:33:37 AM 38.7650 -82.8240 57° Northeast 425 489 39,000  Level FlightAware ADS-B
Tue 05:34:17 AM 38.8090 -82.7390 56° Northeast 425 489 39,000  Level FlightAware ADS-B
Tue 05:34:57 AM 38.8460 -82.6650 57° Northeast 425 489 39,000  Level FlightAware ADS-B
Tue 05:35:42 AM 38.9000 -82.5590 57° Northeast 426 490 39,000  Level FlightAware ADS-B
Tue 05:36:27 AM 38.9470 -82.4660 57° Northeast 426 490 39,000  Level FlightAware ADS-B
Tue 05:37:07 AM 38.9890 -82.3830 57° Northeast 425 489 39,000  Level FlightAware ADS-B
Tue 05:37:52 AM 39.0360 -82.2870 58° Northeast 424 488 39,000  Level FlightAware ADS-B
Tue 05:38:32 AM 39.0790 -82.2020 57° Northeast 424 488 39,000  Level FlightAware ADS-B
Tue 05:39:12 AM 39.1220 -82.1150 57° Northeast 423 487 39,000  Level FlightAware ADS-B
Tue 05:39:57 AM 39.1690 -82.0220 57° Northeast 422 486 39,000  Level FlightAware ADS-B
Tue 05:40:37 AM 39.2110 -81.9350 58° Northeast 420 483 39,000  Level FlightAware ADS-B
Tue 05:41:22 AM 39.2570 -81.8450 57° Northeast 418 481 39,000  Level FlightAware ADS-B
Tue 05:42:02 AM 39.3000 -81.7590 57° Northeast 416 479 39,000  Level FlightAware ADS-B
Tue 05:42:42 AM 39.3400 -81.6740 59° Northeast 416 479 39,000  Level FlightAware ADS-B
Tue 05:43:27 AM 39.3880 -81.5760 58° Northeast 414 476 39,000  Level FlightAware ADS-B
Tue 05:44:12 AM 39.4330 -81.4840 58° Northeast 413 475 39,000  Level FlightAware ADS-B
Tue 05:44:47 AM 39.4690 -81.4070 59° Northeast 424 488 39,000  Level FlightAware ADS-B
Tue 05:45:32 AM 39.5010 -81.3030 68° East 433 498 39,000  Level FlightAware ADS-B
Tue 05:46:12 AM 39.5290 -81.2040 70° East 432 497 39,000  Level FlightAware ADS-B
Tue 05:46:57 AM 39.5620 -81.0920 69° East 432 497 39,000  Level FlightAware ADS-B
Tue 05:47:37 AM 39.5910 -80.9950 69° East 432 497 39,000  Level FlightAware ADS-B
Tue 05:48:22 AM 39.6220 -80.8910 69° East 432 497 39,000  Level FlightAware ADS-B
Tue 05:49:02 AM 39.6500 -80.7920 70° East 432 497 39,000  Level FlightAware ADS-B
Tue 05:49:47 AM 39.6830 -80.6860 68° East 424 488 39,000  Level FlightAware ADS-B
Tue 05:50:27 AM 39.7190 -80.5980 62° Northeast 412 474 39,000  Level FlightAware ADS-B
Tue 05:51:07 AM 39.7610 -80.5110 58° Northeast 408 470 39,000  Level FlightAware ADS-B
Tue 05:51:52 AM 39.8050 -80.4220 57° Northeast 407 468 39,000  Level FlightAware ADS-B
Tue 05:52:27 AM 39.8420 -80.3480 57° Northeast 407 468 39,000  Level FlightAware ADS-B
Tue 05:53:12 AM 39.8870 -80.2570 57° Northeast 408 470 39,000  Level FlightAware ADS-B
Tue 05:53:52 AM 39.9280 -80.1740 57° Northeast 408 470 39,000  Level FlightAware ADS-B
Tue 05:54:52 AM 39.9870 -80.0540 57° Northeast 409 471 39,000  Level FlightAware ADS-B
Tue 05:55:37 AM 40.0360 -79.9540 57° Northeast 410 472 39,000  Level FlightAware ADS-B
Tue 05:56:17 AM 40.0770 -79.8710 57° Northeast 411 473 39,000  Level FlightAware ADS-B
Tue 05:56:57 AM 40.1180 -79.7890 57° Northeast 413 475 39,000  Level FlightAware ADS-B
Tue 05:57:42 AM 40.1650 -79.6910 58° Northeast 416 479 39,000  Level FlightAware ADS-B
Tue 05:58:22 AM 40.2070 -79.6060 57° Northeast 418 481 39,000  Level FlightAware ADS-B
Tue 05:59:07 AM 40.2530 -79.5100 58° Northeast 421 484 39,000  Level FlightAware ADS-B
Tue 05:59:47 AM 40.2950 -79.4230 58° Northeast 424 488 39,000  Level FlightAware ADS-B
Tue 06:00:32 AM 40.3430 -79.3230 58° Northeast 425 489 39,000  Level FlightAware ADS-B
Tue 06:01:12 AM 40.3850 -79.2350 58° Northeast 428 493 39,000  Level FlightAware ADS-B
Tue 06:01:52 AM 40.4270 -79.1490 57° Northeast 433 498 39,000  Level FlightAware ADS-B
Tue 06:02:37 AM 40.4750 -79.0480 58° Northeast 443 510 39,000  Level FlightAware ADS-B
Tue 06:03:17 AM 40.5180 -78.9560 58° Northeast 450 518 39,000  Level FlightAware ADS-B
Tue 06:04:02 AM 40.5690 -78.8480 58° Northeast 455 524 39,000  Level FlightAware ADS-B
Tue 06:04:42 AM 40.6120 -78.7590 58° Northeast 458 527 39,000  Level FlightAware ADS-B
Tue 06:05:27 AM 40.6570 -78.6610 59° Northeast 459 528 39,000  Level FlightAware ADS-B
Tue 06:05:54 AM 40.6960 -78.5806 57° Northeast 459 528 39,000  Level FlightAware ADS-B
Tue 06:06:47 AM 40.7470 -78.4710 58° Northeast 457 526 39,000  Level FlightAware ADS-B
Tue 06:07:32 AM 40.7960 -78.3670 58° Northeast 456 525 39,000  Level FlightAware ADS-B
Tue 06:08:12 AM 40.8390 -78.2750 58° Northeast 456 525 39,000  Level FlightAware ADS-B
Tue 06:08:57 AM 40.8900 -78.1660 58° Northeast 455 524 39,000  Level FlightAware ADS-B
Tue 06:09:37 AM 40.9350 -78.0680 59° Northeast 457 526 39,000  Level FlightAware ADS-B
Tue 06:09:41 AM 40.9467 -78.0421 59° Northeast 459 528 39,000  Level FlightAware ADS-B
Tue 06:10:17 AM 40.9780 -77.9750 58° Northeast 462 532 39,000  Level FlightAware ADS-B
Tue 06:11:02 AM 41.0290 -77.8600 60° Northeast 465 535 39,000  Level FlightAware ADS-B
Tue 06:11:42 AM 41.0730 -77.7640 59° Northeast 467 537 39,000  Level FlightAware ADS-B
Tue 06:12:12 AM 41.1142 -77.6733 59° Northeast 469 540 39,000  Level FlightAware ADS-B
Tue 06:12:45 AM 41.1506 -77.5916 59° Northeast 471 542 39,000 -237 Level FlightAware ADS-B
Tue 06:13:28 AM 41.1984 -77.4846 59° Northeast 472 543 38,700 -688 Descending FlightAware ADS-B
Tue 06:14:21 AM 41.2569 -77.3527 59° Northeast 470 541 37,900 -818 Descending FlightAware ADS-B
Tue 06:14:56 AM 41.2961 -77.2662 59° Northeast 467 537 37,500 -727 Descending FlightAware ADS-B
Tue 06:15:27 AM 41.3305 -77.1912 59° Northeast 460 529 37,100 -612 Descending FlightAware ADS-B
Tue 06:15:45 AM 41.3522 -77.1497 55° Northeast 454 522 37,000 -735 Descending FlightAware ADS-B
Tue 06:16:16 AM 41.3912 -77.0830 52° Northeast 453 521 36,500 -915 Descending FlightAware ADS-B
Tue 06:16:44 AM 41.4280 -77.0193 52° Northeast 453 521 36,100 -857 Descending FlightAware ADS-B
Tue 06:17:19 AM 41.4742 -76.9433 51° Northeast 452 520 35,600 -806 Descending FlightAware ADS-B
Tue 06:17:51 AM 41.5152 -76.8740 52° Northeast 448 516 35,200 -774 Descending FlightAware ADS-B
Tue 06:18:21 AM 41.5539 -76.8094 51° Northeast 446 513 34,800 -831 Descending FlightAware ADS-B
Tue 06:18:56 AM 41.5987 -76.7360 51° Northeast 449 517 34,300 -923 Descending FlightAware ADS-B
Tue 06:19:26 AM 41.6380 -76.6688 52° Northeast 449 517 33,800 -1,000 Descending FlightAware ADS-B
Tue 06:19:56 AM 41.6772 -76.6034 51° Northeast 452 520 33,300 -1,180 Descending FlightAware ADS-B
Tue 06:20:27 AM 41.7163 -76.5354 52° Northeast 450 518 32,600 -2,545 Descending FlightAware ADS-B
Tue 06:21:02 AM 41.7620 -76.4585 51° Northeast 457 526 30,500 -2,954 Descending FlightAware ADS-B
Tue 06:21:32 AM 41.7940 -76.4040 52° Northeast 469 540 29,400 -2,438 Descending FlightAware ADS-B
Tue 06:21:34 AM 41.8050 -76.3860 51° Northeast 457 526 29,200 -686 Descending FlightAware ADS-B
Tue 06:22:07 AM 41.8360 -76.3340 51° Northeast 465 535 29,000 -154 Descending FlightAware ADS-B
Tue 06:22:52 AM 41.8950 -76.2310 52° Northeast 467 537 29,000 -533 Level FlightAware ADS-B
Tue 06:23:37 AM 41.9610 -76.1190 52° Northeast 451 519 28,200 -2,047 Descending FlightAware ADS-B
Tue 06:24:17 AM 42.0110 -76.0330 52° Northeast 441 507 26,100 -1,835 Descending FlightAware ADS-B
Tue 06:25:02 AM 42.0610 -75.9490 51° Northeast 439 505 25,600 -353 Descending FlightAware ADS-B
Tue 06:25:42 AM 42.1050 -75.8770 51° Northeast 439 505 25,600  Level FlightAware ADS-B
Tue 06:26:22 AM 42.1480 -75.8040 52° Northeast 439 505 25,600  Level FlightAware ADS-B
Tue 06:27:02 AM 42.1920 -75.7320 50° Northeast 439 505 25,600  Level FlightAware ADS-B
Tue 06:27:42 AM 42.2350 -75.6590 51° Northeast 439 505 25,600 -1,371 Level FlightAware ADS-B
Tue 06:28:12 AM 42.2920 -75.5050 63° Northeast 455 524 24,000 -1,280 Descending FlightAware ADS-B
Tue 06:28:57 AM 42.3270 -75.3990 66° East 455 524 24,000 -1,129 Level FlightAware ADS-B
Tue 06:29:37 AM 42.3530 -75.2910 72° East 446 513 22,400 -1,200 Descending FlightAware ADS-B
Tue 06:30:17 AM 42.3780 -75.2020 69° East 446 513 22,400  Level FlightAware ADS-B
Tue 06:30:57 AM 42.4030 -75.1130 69° East 446 513 22,400  Level FlightAware ADS-B
Tue 06:31:47 AM 42.4350 -75.0020 69° East 446 513 22,400  Level FlightAware ADS-B
Tue 06:32:27 AM 42.4600 -74.9140 69° East 446 513 22,400 -5,348 Level FlightAware ADS-B
Tue 06:33:19 AM 42.5022 -74.7353 69° East 416 479 14,200 -7,612 Descending Boston Center
Tue 06:33:34 AM 42.5111 -74.7047 68° East 391 450 13,900 -1,300 Descending Boston Center
Tue 06:34:19 AM 42.5317 -74.6181 72° East 382 440 12,900 -1,400 Descending Boston Center
Tue 06:34:34 AM 42.5450 -74.5819 63° Northeast 347 399 12,500 -1,300 Descending Boston Center
Tue 06:35:19 AM 42.5611 -74.4867 77° East 340 391 11,600 -1,082 Descending Boston Center
Tue 06:35:35 AM 42.5617 -74.4642 88° East 322 371 11,400 -1,400 Descending Boston Center
Tue 06:36:19 AM 42.5611 -74.3794 90° East 317 365 10,200 -1,672 Descending Boston Center
Tue 06:36:36 AM 42.5636 -74.3428 85° East 305 351 9,700 -1,900 Descending Boston Center
Tue 06:37:19 AM 42.5650 -74.2611 89° East 298 343 8,300 -2,000 Descending Boston Center
Tue 06:37:36 AM 42.5675 -74.2303 84° East 282 325 7,700 -1,800 Descending Boston Center
Tue 06:38:19 AM 42.5708 -74.1656 86° East 278 320 6,500 -1,967 Descending Boston Center
Tue 06:38:37 AM 42.5714 -74.1289 89° East 266 306 5,700 -2,300 Descending Boston Center
Tue 06:39:19 AM 42.5744 -74.0556 87° East 265 305 4,200 -1,600 Descending Boston Center
Tue 06:39:37 AM 42.5747 -74.0303 89° East 263 303 4,100 -304 Descending Boston Center
Tue 06:40:38 AM 42.5758 -73.9428 89° East 230 265 3,800 -529 Descending Boston Center
Tue 06:41:19 AM 42.5767 -73.8781 89° East 230 265 3,200 -984 Descending Boston Center
Tue 06:41:39 AM 42.5750 -73.8556 96° East 217 250 2,800 -700 Descending Boston Center
Tue 06:42:19 AM 42.5839 -73.8050 77° East 220 253 2,500 -300 Descending Boston Center
Tue 06:42:39 AM 42.5947 -73.7853 53° Northeast 176 203 2,500  Level Boston Center
Tue 06:43:19 AM 42.6133 -73.7969 335° Northwest 130 150 2,500  Level Boston Center
Tue 06:43:40 AM 42.6278 -73.8003 350° North 117 135 2,500 8,500 Level Boston Center
Tue 06:44:19 AM 42.6486 -73.7950 11° North 111 128 11,000 -590 Climbing Boston Center
Tue 06:44:41 AM 42.6611 -73.8036 333° Northwest 111 128 1,900  Descending Boston Center
Tue 06:45:19 AM 42.6800 -73.7900 28° Northeast 111 128 11,000 -600 Climbing Boston Center
Tue 06:45:41 AM 42.6903 -73.8044 314° West 110 127 1,300  Descending Boston Center
Tue 06:46:19 AM 42.7114 -73.7822 38° Northeast 111 128 11,000 -689 Climbing Boston Center
Tue 06:46:42 AM 42.7256 -73.8053 310° West 122 140 600  Descending Boston Center
Tue 06:47:19 AM 42.7428 -73.7772 50° Northeast 111 128 11,000 6,433 Climbing Boston Center
Tue 06:48:19 AM 42.7614 -73.7719 12° North 111 128 11,000  Level Boston Center

Login

Don't have an account? Register now (free) for customized features, flight alerts, and more!